sensor_id;sensor_type;location;lat;lon;timestamp;P1;durP1;ratioP1;P2;durP2;ratioP2
10246;SDS011;5168;47.854;7.944;2023-02-12T00:00:37;4.57;;;3.80;;
10246;SDS011;5168;47.854;7.944;2023-02-12T00:03:03;2.00;;;1.83;;
10246;SDS011;5168;47.854;7.944;2023-02-12T00:05:29;3.83;;;2.70;;
10246;SDS011;5168;47.854;7.944;2023-02-12T00:07:55;2.60;;;2.37;;
10246;SDS011;5168;47.854;7.944;2023-02-12T00:10:21;5.50;;;4.20;;
10246;SDS011;5168;47.854;7.944;2023-02-12T00:12:46;8.53;;;5.50;;
10246;SDS011;5168;47.854;7.944;2023-02-12T00:15:12;4.10;;;2.67;;
10246;SDS011;5168;47.854;7.944;2023-02-12T00:17:38;1.80;;;1.70;;
10246;SDS011;5168;47.854;7.944;2023-02-12T00:20:03;1.70;;;1.60;;
10246;SDS011;5168;47.854;7.944;2023-02-12T00:22:30;1.70;;;1.60;;
10246;SDS011;5168;47.854;7.944;2023-02-12T00:24:55;1.77;;;1.67;;
10246;SDS011;5168;47.854;7.944;2023-02-12T00:27:21;1.70;;;1.60;;
10246;SDS011;5168;47.854;7.944;2023-02-12T00:29:47;1.87;;;1.77;;
10246;SDS011;5168;47.854;7.944;2023-02-12T00:32:12;1.80;;;1.70;;
10246;SDS011;5168;47.854;7.944;2023-02-12T00:34:43;1.80;;;1.70;;
10246;SDS011;5168;47.854;7.944;2023-02-12T00:37:09;2.07;;;1.80;;
10246;SDS011;5168;47.854;7.944;2023-02-12T00:39:35;1.90;;;1.80;;
10246;SDS011;5168;47.854;7.944;2023-02-12T00:42:01;2.40;;;2.20;;
10246;SDS011;5168;47.854;7.944;2023-02-12T00:44:27;2.63;;;2.33;;
10246;SDS011;5168;47.854;7.944;2023-02-12T00:46:53;2.17;;;2.00;;
10246;SDS011;5168;47.854;7.944;2023-02-12T00:49:19;2.00;;;1.90;;
10246;SDS011;5168;47.854;7.944;2023-02-12T00:51:45;1.97;;;1.83;;
10246;SDS011;5168;47.854;7.944;2023-02-12T00:54:10;1.53;;;1.43;;
10246;SDS011;5168;47.854;7.944;2023-02-12T00:56:36;1.93;;;1.73;;
10246;SDS011;5168;47.854;7.944;2023-02-12T00:59:02;2.27;;;2.07;;
10246;SDS011;5168;47.854;7.944;2023-02-12T01:01:28;1.70;;;1.60;;
10246;SDS011;5168;47.854;7.944;2023-02-12T01:03:53;1.90;;;1.80;;
10246;SDS011;5168;47.854;7.944;2023-02-12T01:06:19;2.00;;;1.90;;
10246;SDS011;5168;47.854;7.944;2023-02-12T01:08:44;3.10;;;1.80;;
10246;SDS011;5168;47.854;7.944;2023-02-12T01:11:10;1.70;;;1.60;;
10246;SDS011;5168;47.854;7.944;2023-02-12T01:13:36;2.03;;;1.80;;
10246;SDS011;5168;47.854;7.944;2023-02-12T01:16:07;1.60;;;1.50;;
10246;SDS011;5168;47.854;7.944;2023-02-12T01:18:37;1.70;;;1.60;;
10246;SDS011;5168;47.854;7.944;2023-02-12T01:21:09;2.37;;;1.70;;
10246;SDS011;5168;47.854;7.944;2023-02-12T01:23:45;2.07;;;1.97;;
10246;SDS011;5168;47.854;7.944;2023-02-12T01:26:12;2.33;;;2.00;;
10246;SDS011;5168;47.854;7.944;2023-02-12T01:28:39;2.20;;;2.00;;
10246;SDS011;5168;47.854;7.944;2023-02-12T01:31:13;2.20;;;2.10;;
10246;SDS011;5168;47.854;7.944;2023-02-12T01:33:40;1.90;;;1.77;;
10246;SDS011;5168;47.854;7.944;2023-02-12T01:36:06;2.00;;;1.80;;
10246;SDS011;5168;47.854;7.944;2023-02-12T01:38:32;1.87;;;1.77;;
10246;SDS011;5168;47.854;7.944;2023-02-12T01:41:05;1.80;;;1.70;;
10246;SDS011;5168;47.854;7.944;2023-02-12T01:43:33;1.80;;;1.70;;
10246;SDS011;5168;47.854;7.944;2023-02-12T01:46:00;1.60;;;1.50;;
10246;SDS011;5168;47.854;7.944;2023-02-12T01:48:27;1.77;;;1.67;;
10246;SDS011;5168;47.854;7.944;2023-02-12T01:50:56;1.80;;;1.70;;
10246;SDS011;5168;47.854;7.944;2023-02-12T01:53:24;2.03;;;1.60;;
10246;SDS011;5168;47.854;7.944;2023-02-12T01:55:56;1.70;;;1.60;;
10246;SDS011;5168;47.854;7.944;2023-02-12T01:58:25;1.87;;;1.77;;
10246;SDS011;5168;47.854;7.944;2023-02-12T02:00:55;1.90;;;1.80;;
10246;SDS011;5168;47.854;7.944;2023-02-12T02:03:21;2.10;;;1.90;;
10246;SDS011;5168;47.854;7.944;2023-02-12T02:05:55;2.13;;;2.00;;
10246;SDS011;5168;47.854;7.944;2023-02-12T02:08:35;1.87;;;1.77;;
10246;SDS011;5168;47.854;7.944;2023-02-12T02:11:00;2.30;;;2.10;;
10246;SDS011;5168;47.854;7.944;2023-02-12T02:13:46;2.00;;;1.90;;
10246;SDS011;5168;47.854;7.944;2023-02-12T02:16:30;2.20;;;1.80;;
10246;SDS011;5168;47.854;7.944;2023-02-12T02:19:01;2.37;;;1.83;;
10246;SDS011;5168;47.854;7.944;2023-02-12T02:27:15;2.03;;;1.83;;
10246;SDS011;5168;47.854;7.944;2023-02-12T02:32:40;1.93;;;1.83;;
10246;SDS011;5168;47.854;7.944;2023-02-12T02:35:25;2.20;;;2.00;;
10246;SDS011;5168;47.854;7.944;2023-02-12T02:38:11;2.60;;;2.13;;
10246;SDS011;5168;47.854;7.944;2023-02-12T02:40:49;2.43;;;2.10;;
10246;SDS011;5168;47.854;7.944;2023-02-12T02:43:26;2.40;;;2.20;;
10246;SDS011;5168;47.854;7.944;2023-02-12T02:45:58;2.30;;;2.10;;
10246;SDS011;5168;47.854;7.944;2023-02-12T02:48:36;2.10;;;1.90;;
10246;SDS011;5168;47.854;7.944;2023-02-12T02:51:11;2.13;;;1.90;;
10246;SDS011;5168;47.854;7.944;2023-02-12T02:53:42;2.17;;;2.07;;
10246;SDS011;5168;47.854;7.944;2023-02-12T02:56:12;2.37;;;2.00;;
10246;SDS011;5168;47.854;7.944;2023-02-12T02:58:45;2.30;;;2.10;;
10246;SDS011;5168;47.854;7.944;2023-02-12T03:01:21;2.30;;;2.10;;
10246;SDS011;5168;47.854;7.944;2023-02-12T03:03:56;2.17;;;1.97;;
10246;SDS011;5168;47.854;7.944;2023-02-12T03:06:34;2.07;;;1.73;;
10246;SDS011;5168;47.854;7.944;2023-02-12T03:09:12;1.80;;;1.63;;
10246;SDS011;5168;47.854;7.944;2023-02-12T03:11:47;2.10;;;2.00;;
10246;SDS011;5168;47.854;7.944;2023-02-12T03:14:20;2.87;;;2.10;;
10246;SDS011;5168;47.854;7.944;2023-02-12T03:16:55;1.80;;;1.70;;
10246;SDS011;5168;47.854;7.944;2023-02-12T03:19:30;2.17;;;1.93;;
10246;SDS011;5168;47.854;7.944;2023-02-12T03:22:05;2.80;;;2.50;;
10246;SDS011;5168;47.854;7.944;2023-02-12T03:27:18;2.10;;;1.90;;
10246;SDS011;5168;47.854;7.944;2023-02-12T03:29:46;2.50;;;2.30;;
10246;SDS011;5168;47.854;7.944;2023-02-12T03:32:23;3.03;;;1.90;;
10246;SDS011;5168;47.854;7.944;2023-02-12T03:37:33;2.83;;;1.97;;
10246;SDS011;5168;47.854;7.944;2023-02-12T03:40:16;1.70;;;1.60;;
10246;SDS011;5168;47.854;7.944;2023-02-12T03:42:54;1.87;;;1.70;;
10246;SDS011;5168;47.854;7.944;2023-02-12T03:45:59;1.70;;;1.60;;
10246;SDS011;5168;47.854;7.944;2023-02-12T03:48:31;2.20;;;1.83;;
10246;SDS011;5168;47.854;7.944;2023-02-12T03:51:09;1.80;;;1.70;;
10246;SDS011;5168;47.854;7.944;2023-02-12T03:53:43;1.80;;;1.70;;
10246;SDS011;5168;47.854;7.944;2023-02-12T03:56:11;1.80;;;1.70;;
10246;SDS011;5168;47.854;7.944;2023-02-12T03:58:41;3.30;;;2.60;;
10246;SDS011;5168;47.854;7.944;2023-02-12T04:01:09;3.33;;;2.60;;
10246;SDS011;5168;47.854;7.944;2023-02-12T04:03:36;2.20;;;2.00;;
10246;SDS011;5168;47.854;7.944;2023-02-12T04:06:02;2.37;;;2.17;;
10246;SDS011;5168;47.854;7.944;2023-02-12T04:08:28;2.67;;;2.47;;
10246;SDS011;5168;47.854;7.944;2023-02-12T04:19:49;1.97;;;1.83;;
10246;SDS011;5168;47.854;7.944;2023-02-12T04:28:21;3.20;;;2.10;;
10246;SDS011;5168;47.854;7.944;2023-02-12T04:31:05;2.00;;;1.80;;
10246;SDS011;5168;47.854;7.944;2023-02-12T04:33:47;2.90;;;2.03;;
10246;SDS011;5168;47.854;7.944;2023-02-12T04:36:25;2.20;;;2.00;;
10246;SDS011;5168;47.854;7.944;2023-02-12T04:38:58;2.27;;;2.07;;
10246;SDS011;5168;47.854;7.944;2023-02-12T04:41:31;2.00;;;1.80;;
10246;SDS011;5168;47.854;7.944;2023-02-12T04:43:57;2.80;;;2.00;;
10246;SDS011;5168;47.854;7.944;2023-02-12T04:46:22;2.40;;;2.00;;
10246;SDS011;5168;47.854;7.944;2023-02-12T04:48:55;2.27;;;1.90;;
10246;SDS011;5168;47.854;7.944;2023-02-12T04:51:22;2.30;;;2.10;;
10246;SDS011;5168;47.854;7.944;2023-02-12T04:53:48;1.77;;;1.67;;
10246;SDS011;5168;47.854;7.944;2023-02-12T04:56:14;2.20;;;2.00;;
10246;SDS011;5168;47.854;7.944;2023-02-12T04:58:40;2.43;;;2.13;;
10246;SDS011;5168;47.854;7.944;2023-02-12T05:01:06;1.80;;;1.70;;
10246;SDS011;5168;47.854;7.944;2023-02-12T05:03:33;2.10;;;1.90;;
10246;SDS011;5168;47.854;7.944;2023-02-12T05:06:03;2.10;;;1.90;;
10246;SDS011;5168;47.854;7.944;2023-02-12T05:08:29;2.20;;;2.00;;
10246;SDS011;5168;47.854;7.944;2023-02-12T05:10:55;2.40;;;2.20;;
10246;SDS011;5168;47.854;7.944;2023-02-12T05:13:21;2.30;;;2.10;;
10246;SDS011;5168;47.854;7.944;2023-02-12T05:15:47;3.33;;;2.30;;
10246;SDS011;5168;47.854;7.944;2023-02-12T05:18:12;2.60;;;2.40;;
10246;SDS011;5168;47.854;7.944;2023-02-12T05:20:38;2.10;;;1.90;;
10246;SDS011;5168;47.854;7.944;2023-02-12T05:23:04;2.23;;;2.03;;
10246;SDS011;5168;47.854;7.944;2023-02-12T05:25:29;2.70;;;2.47;;
10246;SDS011;5168;47.854;7.944;2023-02-12T05:27:56;1.83;;;1.73;;
10246;SDS011;5168;47.854;7.944;2023-02-12T05:30:22;2.27;;;2.07;;
10246;SDS011;5168;47.854;7.944;2023-02-12T05:32:47;2.67;;;2.10;;
10246;SDS011;5168;47.854;7.944;2023-02-12T05:35:13;3.67;;;2.00;;
10246;SDS011;5168;47.854;7.944;2023-02-12T05:37:39;1.97;;;1.87;;
10246;SDS011;5168;47.854;7.944;2023-02-12T05:40:05;2.10;;;1.90;;
10246;SDS011;5168;47.854;7.944;2023-02-12T05:42:32;2.17;;;2.00;;
10246;SDS011;5168;47.854;7.944;2023-02-12T05:44:58;2.17;;;2.07;;
10246;SDS011;5168;47.854;7.944;2023-02-12T05:47:24;2.10;;;1.90;;
10246;SDS011;5168;47.854;7.944;2023-02-12T05:49:49;2.17;;;1.97;;
10246;SDS011;5168;47.854;7.944;2023-02-12T05:52:15;2.20;;;2.00;;
10246;SDS011;5168;47.854;7.944;2023-02-12T05:54:41;1.90;;;1.80;;
10246;SDS011;5168;47.854;7.944;2023-02-12T05:57:06;1.90;;;1.80;;
10246;SDS011;5168;47.854;7.944;2023-02-12T05:59:32;2.27;;;2.10;;
10246;SDS011;5168;47.854;7.944;2023-02-12T06:01:58;2.03;;;1.87;;
10246;SDS011;5168;47.854;7.944;2023-02-12T06:04:25;2.07;;;1.87;;
10246;SDS011;5168;47.854;7.944;2023-02-12T06:06:53;1.90;;;1.80;;
10246;SDS011;5168;47.854;7.944;2023-02-12T06:09:19;2.40;;;1.90;;
10246;SDS011;5168;47.854;7.944;2023-02-12T06:11:46;2.17;;;1.93;;
10246;SDS011;5168;47.854;7.944;2023-02-12T06:14:13;1.63;;;1.53;;
10246;SDS011;5168;47.854;7.944;2023-02-12T06:16:42;2.27;;;2.07;;
10246;SDS011;5168;47.854;7.944;2023-02-12T06:19:09;1.80;;;1.70;;
10246;SDS011;5168;47.854;7.944;2023-02-12T06:21:35;2.30;;;2.10;;
10246;SDS011;5168;47.854;7.944;2023-02-12T06:24:01;2.67;;;1.87;;
10246;SDS011;5168;47.854;7.944;2023-02-12T06:26:27;2.10;;;1.90;;
10246;SDS011;5168;47.854;7.944;2023-02-12T06:28:53;2.27;;;2.03;;
10246;SDS011;5168;47.854;7.944;2023-02-12T06:31:23;4.00;;;1.77;;
10246;SDS011;5168;47.854;7.944;2023-02-12T06:33:51;1.87;;;1.77;;
10246;SDS011;5168;47.854;7.944;2023-02-12T06:36:17;2.00;;;1.90;;
10246;SDS011;5168;47.854;7.944;2023-02-12T06:38:43;2.30;;;2.10;;
10246;SDS011;5168;47.854;7.944;2023-02-12T06:41:09;2.10;;;1.90;;
10246;SDS011;5168;47.854;7.944;2023-02-12T06:43:35;2.60;;;2.40;;
10246;SDS011;5168;47.854;7.944;2023-02-12T06:46:01;3.10;;;2.23;;
10246;SDS011;5168;47.854;7.944;2023-02-12T06:48:27;8.30;;;2.10;;
10246;SDS011;5168;47.854;7.944;2023-02-12T06:50:54;2.30;;;1.90;;
10246;SDS011;5168;47.854;7.944;2023-02-12T06:53:19;2.07;;;1.97;;
10246;SDS011;5168;47.854;7.944;2023-02-12T06:55:45;2.27;;;2.03;;
10246;SDS011;5168;47.854;7.944;2023-02-12T06:58:11;2.40;;;2.20;;
10246;SDS011;5168;47.854;7.944;2023-02-12T07:00:37;1.90;;;1.80;;
10246;SDS011;5168;47.854;7.944;2023-02-12T07:03:02;1.90;;;1.70;;
10246;SDS011;5168;47.854;7.944;2023-02-12T07:05:28;1.77;;;1.67;;
10246;SDS011;5168;47.854;7.944;2023-02-12T07:07:54;2.00;;;1.80;;
10246;SDS011;5168;47.854;7.944;2023-02-12T07:10:19;1.77;;;1.67;;
10246;SDS011;5168;47.854;7.944;2023-02-12T07:12:45;2.13;;;1.93;;
10246;SDS011;5168;47.854;7.944;2023-02-12T07:15:11;1.70;;;1.60;;
10246;SDS011;5168;47.854;7.944;2023-02-12T07:17:37;1.70;;;1.60;;
10246;SDS011;5168;47.854;7.944;2023-02-12T07:20:03;2.60;;;1.73;;
10246;SDS011;5168;47.854;7.944;2023-02-12T07:22:29;1.70;;;1.60;;
10246;SDS011;5168;47.854;7.944;2023-02-12T07:24:55;1.90;;;1.80;;
10246;SDS011;5168;47.854;7.944;2023-02-12T07:27:20;2.00;;;1.90;;
10246;SDS011;5168;47.854;7.944;2023-02-12T07:29:46;1.97;;;1.87;;
10246;SDS011;5168;47.854;7.944;2023-02-12T07:32:12;1.90;;;1.80;;
10246;SDS011;5168;47.854;7.944;2023-02-12T07:34:38;1.90;;;1.80;;
10246;SDS011;5168;47.854;7.944;2023-02-12T07:37:04;2.03;;;1.83;;
10246;SDS011;5168;47.854;7.944;2023-02-12T07:39:30;2.10;;;1.67;;
10246;SDS011;5168;47.854;7.944;2023-02-12T07:41:56;2.30;;;2.00;;
10246;SDS011;5168;47.854;7.944;2023-02-12T07:44:22;2.30;;;2.10;;
10246;SDS011;5168;47.854;7.944;2023-02-12T07:46:48;2.23;;;2.00;;
10246;SDS011;5168;47.854;7.944;2023-02-12T07:49:18;2.33;;;2.13;;
10246;SDS011;5168;47.854;7.944;2023-02-12T07:51:46;2.00;;;1.90;;
10246;SDS011;5168;47.854;7.944;2023-02-12T07:54:12;1.70;;;1.60;;
10246;SDS011;5168;47.854;7.944;2023-02-12T07:56:39;2.00;;;1.90;;
10246;SDS011;5168;47.854;7.944;2023-02-12T07:59:07;2.73;;;1.60;;
10246;SDS011;5168;47.854;7.944;2023-02-12T08:01:38;2.00;;;1.83;;
10246;SDS011;5168;47.854;7.944;2023-02-12T08:04:06;1.70;;;1.60;;
10246;SDS011;5168;47.854;7.944;2023-02-12T08:06:38;1.70;;;1.60;;
10246;SDS011;5168;47.854;7.944;2023-02-12T08:09:06;1.70;;;1.60;;
10246;SDS011;5168;47.854;7.944;2023-02-12T08:11:35;1.67;;;1.57;;
10246;SDS011;5168;47.854;7.944;2023-02-12T08:14:01;1.80;;;1.70;;
10246;SDS011;5168;47.854;7.944;2023-02-12T08:16:28;1.93;;;1.73;;
10246;SDS011;5168;47.854;7.944;2023-02-12T08:18:54;1.80;;;1.70;;
10246;SDS011;5168;47.854;7.944;2023-02-12T08:21:21;1.87;;;1.70;;
10246;SDS011;5168;47.854;7.944;2023-02-12T08:23:48;1.87;;;1.77;;
10246;SDS011;5168;47.854;7.944;2023-02-12T08:26:22;2.50;;;1.90;;
10246;SDS011;5168;47.854;7.944;2023-02-12T08:28:56;1.93;;;1.80;;
10246;SDS011;5168;47.854;7.944;2023-02-12T08:31:34;2.10;;;1.93;;
10246;SDS011;5168;47.854;7.944;2023-02-12T08:34:05;1.60;;;1.50;;
10246;SDS011;5168;47.854;7.944;2023-02-12T08:36:38;1.70;;;1.60;;
10246;SDS011;5168;47.854;7.944;2023-02-12T08:39:04;1.97;;;1.80;;
10246;SDS011;5168;47.854;7.944;2023-02-12T08:41:32;2.10;;;1.90;;
10246;SDS011;5168;47.854;7.944;2023-02-12T08:43:59;1.83;;;1.53;;
10246;SDS011;5168;47.854;7.944;2023-02-12T08:46:30;3.73;;;2.20;;
10246;SDS011;5168;47.854;7.944;2023-02-12T08:48:59;1.60;;;1.50;;
10246;SDS011;5168;47.854;7.944;2023-02-12T08:51:27;2.17;;;1.97;;
10246;SDS011;5168;47.854;7.944;2023-02-12T08:53:56;2.97;;;2.37;;
10246;SDS011;5168;47.854;7.944;2023-02-12T08:56:24;2.30;;;1.80;;
10246;SDS011;5168;47.854;7.944;2023-02-12T08:58:50;2.53;;;2.20;;
10246;SDS011;5168;47.854;7.944;2023-02-12T09:01:17;3.03;;;2.53;;
10246;SDS011;5168;47.854;7.944;2023-02-12T09:03:45;3.17;;;2.87;;
10246;SDS011;5168;47.854;7.944;2023-02-12T09:06:11;2.90;;;2.60;;
10246;SDS011;5168;47.854;7.944;2023-02-12T09:08:38;2.57;;;2.20;;
10246;SDS011;5168;47.854;7.944;2023-02-12T09:11:08;2.53;;;2.23;;
10246;SDS011;5168;47.854;7.944;2023-02-12T09:13:36;2.50;;;2.17;;
10246;SDS011;5168;47.854;7.944;2023-02-12T09:16:02;3.00;;;2.70;;
10246;SDS011;5168;47.854;7.944;2023-02-12T09:18:28;4.07;;;3.03;;
10246;SDS011;5168;47.854;7.944;2023-02-12T09:20:59;4.73;;;3.20;;
10246;SDS011;5168;47.854;7.944;2023-02-12T09:23:32;4.27;;;2.80;;
10246;SDS011;5168;47.854;7.944;2023-02-12T09:25:58;4.40;;;3.20;;
10246;SDS011;5168;47.854;7.944;2023-02-12T09:28:24;2.90;;;2.40;;
10246;SDS011;5168;47.854;7.944;2023-02-12T09:30:50;4.67;;;2.30;;
10246;SDS011;5168;47.854;7.944;2023-02-12T09:33:16;3.27;;;2.33;;
10246;SDS011;5168;47.854;7.944;2023-02-12T09:35:41;2.43;;;2.10;;
10246;SDS011;5168;47.854;7.944;2023-02-12T09:38:07;2.50;;;2.30;;
10246;SDS011;5168;47.854;7.944;2023-02-12T09:43:39;3.63;;;2.40;;
10246;SDS011;5168;47.854;7.944;2023-02-12T09:49:16;2.00;;;1.80;;
10246;SDS011;5168;47.854;7.944;2023-02-12T09:52:02;3.07;;;1.67;;
10246;SDS011;5168;47.854;7.944;2023-02-12T09:54:38;1.77;;;1.67;;
10246;SDS011;5168;47.854;7.944;2023-02-12T09:57:06;3.23;;;1.53;;
10246;SDS011;5168;47.854;7.944;2023-02-12T09:59:46;2.40;;;1.50;;
10246;SDS011;5168;47.854;7.944;2023-02-12T10:02:18;1.53;;;1.43;;
10246;SDS011;5168;47.854;7.944;2023-02-12T10:04:45;1.80;;;1.70;;
10246;SDS011;5168;47.854;7.944;2023-02-12T10:10:26;2.17;;;1.80;;
10246;SDS011;5168;47.854;7.944;2023-02-12T10:18:04;2.07;;;1.60;;
10246;SDS011;5168;47.854;7.944;2023-02-12T10:26:15;1.40;;;1.30;;
10246;SDS011;5168;47.854;7.944;2023-02-12T10:28:53;1.50;;;1.40;;
10246;SDS011;5168;47.854;7.944;2023-02-12T10:31:30;1.57;;;1.37;;
10246;SDS011;5168;47.854;7.944;2023-02-12T10:33:58;1.63;;;1.53;;
10246;SDS011;5168;47.854;7.944;2023-02-12T10:36:37;1.50;;;1.40;;
10246;SDS011;5168;47.854;7.944;2023-02-12T10:44:25;1.43;;;1.33;;
10246;SDS011;5168;47.854;7.944;2023-02-12T10:46:51;1.40;;;1.30;;
10246;SDS011;5168;47.854;7.944;2023-02-12T10:49:18;1.60;;;1.10;;
10246;SDS011;5168;47.854;7.944;2023-02-12T10:51:53;1.50;;;1.27;;
10246;SDS011;5168;47.854;7.944;2023-02-12T10:59:44;1.80;;;1.40;;
10246;SDS011;5168;47.854;7.944;2023-02-12T11:02:17;1.40;;;1.30;;
10246;SDS011;5168;47.854;7.944;2023-02-12T11:04:45;1.23;;;1.13;;
10246;SDS011;5168;47.854;7.944;2023-02-12T11:07:11;1.50;;;1.40;;
10246;SDS011;5168;47.854;7.944;2023-02-12T11:09:38;1.43;;;1.27;;
10246;SDS011;5168;47.854;7.944;2023-02-12T11:14:52;1.43;;;1.20;;
10246;SDS011;5168;47.854;7.944;2023-02-12T11:17:24;1.30;;;1.20;;
10246;SDS011;5168;47.854;7.944;2023-02-12T11:25:22;3.67;;;1.67;;
10246;SDS011;5168;47.854;7.944;2023-02-12T11:31:00;1.85;;;1.40;;
10246;SDS011;5168;47.854;7.944;2023-02-12T11:38:53;1.58;;;1.40;;
10246;SDS011;5168;47.854;7.944;2023-02-12T11:46:36;1.50;;;1.40;;
10246;SDS011;5168;47.854;7.944;2023-02-12T11:49:04;1.30;;;1.20;;
10246;SDS011;5168;47.854;7.944;2023-02-12T11:51:33;1.85;;;1.27;;
10246;SDS011;5168;47.854;7.944;2023-02-12T11:54:00;1.45;;;1.10;;
10246;SDS011;5168;47.854;7.944;2023-02-12T11:56:43;1.10;;;1.00;;
10246;SDS011;5168;47.854;7.944;2023-02-12T11:59:20;0.90;;;0.90;;
10246;SDS011;5168;47.854;7.944;2023-02-12T12:01:59;0.93;;;0.82;;
10246;SDS011;5168;47.854;7.944;2023-02-12T12:04:30;0.80;;;0.80;;
10246;SDS011;5168;47.854;7.944;2023-02-12T12:07:03;0.90;;;0.90;;
10246;SDS011;5168;47.854;7.944;2023-02-12T12:09:38;1.65;;;0.80;;
10246;SDS011;5168;47.854;7.944;2023-02-12T12:21:23;0.80;;;0.80;;
10246;SDS011;5168;47.854;7.944;2023-02-12T12:24:01;0.70;;;0.70;;
10246;SDS011;5168;47.854;7.944;2023-02-12T12:26:49;0.65;;;0.65;;
10246;SDS011;5168;47.854;7.944;2023-02-12T12:31:57;0.88;;;0.70;;
10246;SDS011;5168;47.854;7.944;2023-02-12T12:34:28;0.70;;;0.70;;
10246;SDS011;5168;47.854;7.944;2023-02-12T12:39:47;0.80;;;0.80;;
10246;SDS011;5168;47.854;7.944;2023-02-12T12:45:32;0.63;;;0.63;;
10246;SDS011;5168;47.854;7.944;2023-02-12T13:10:48;1.83;;;0.80;;
10246;SDS011;5168;47.854;7.944;2023-02-12T13:13:29;0.68;;;0.68;;
10246;SDS011;5168;47.854;7.944;2023-02-12T13:16:03;1.27;;;0.80;;
10246;SDS011;5168;47.854;7.944;2023-02-12T13:19:01;0.65;;;0.65;;
10246;SDS011;5168;47.854;7.944;2023-02-12T13:21:57;0.70;;;0.70;;
10246;SDS011;5168;47.854;7.944;2023-02-12T13:27:04;0.73;;;0.73;;
10246;SDS011;5168;47.854;7.944;2023-02-12T13:29:36;0.60;;;0.60;;
10246;SDS011;5168;47.854;7.944;2023-02-12T13:32:15;1.23;;;0.70;;
10246;SDS011;5168;47.854;7.944;2023-02-12T13:34:44;1.33;;;0.70;;
10246;SDS011;5168;47.854;7.944;2023-02-12T13:37:13;0.70;;;0.70;;
10246;SDS011;5168;47.854;7.944;2023-02-12T13:39:44;0.80;;;0.80;;
10246;SDS011;5168;47.854;7.944;2023-02-12T13:44:43;1.00;;;0.90;;
10246;SDS011;5168;47.854;7.944;2023-02-12T13:53:17;1.45;;;0.80;;
10246;SDS011;5168;47.854;7.944;2023-02-12T13:58:53;0.70;;;0.70;;
10246;SDS011;5168;47.854;7.944;2023-02-12T14:01:39;1.48;;;0.93;;
10246;SDS011;5168;47.854;7.944;2023-02-12T14:04:14;1.00;;;0.90;;
10246;SDS011;5168;47.854;7.944;2023-02-12T14:09:30;0.80;;;0.80;;
10246;SDS011;5168;47.854;7.944;2023-02-12T14:11:58;0.90;;;0.90;;
10246;SDS011;5168;47.854;7.944;2023-02-12T14:18:02;1.20;;;1.10;;
10246;SDS011;5168;47.854;7.944;2023-02-12T14:21:32;1.20;;;1.10;;
10246;SDS011;5168;47.854;7.944;2023-02-12T14:23:40;1.07;;;1.00;;
10246;SDS011;5168;47.854;7.944;2023-02-12T14:39:01;1.20;;;1.10;;
10246;SDS011;5168;47.854;7.944;2023-02-12T14:41:53;1.87;;;1.30;;
10246;SDS011;5168;47.854;7.944;2023-02-12T14:47:11;1.30;;;1.20;;
10246;SDS011;5168;47.854;7.944;2023-02-12T14:50:00;1.30;;;1.20;;
10246;SDS011;5168;47.854;7.944;2023-02-12T14:52:39;1.30;;;1.20;;
10246;SDS011;5168;47.854;7.944;2023-02-12T14:55:24;1.60;;;1.50;;
10246;SDS011;5168;47.854;7.944;2023-02-12T14:58:05;2.47;;;1.40;;
10246;SDS011;5168;47.854;7.944;2023-02-12T15:00:45;1.30;;;1.20;;
10246;SDS011;5168;47.854;7.944;2023-02-12T15:05:44;1.50;;;1.30;;
10246;SDS011;5168;47.854;7.944;2023-02-12T15:08:35;1.60;;;1.50;;
10246;SDS011;5168;47.854;7.944;2023-02-12T15:11:11;2.50;;;1.60;;
10246;SDS011;5168;47.854;7.944;2023-02-12T15:13:48;1.30;;;1.20;;
10246;SDS011;5168;47.854;7.944;2023-02-12T15:21:50;1.50;;;1.40;;
10246;SDS011;5168;47.854;7.944;2023-02-12T15:24:22;1.63;;;1.50;;
10246;SDS011;5168;47.854;7.944;2023-02-12T15:26:50;2.00;;;1.47;;
10246;SDS011;5168;47.854;7.944;2023-02-12T15:29:23;2.00;;;1.50;;
10246;SDS011;5168;47.854;7.944;2023-02-12T15:31:53;1.50;;;1.40;;
10246;SDS011;5168;47.854;7.944;2023-02-12T15:34:22;1.70;;;1.60;;
10246;SDS011;5168;47.854;7.944;2023-02-12T15:36:50;1.70;;;1.60;;
10246;SDS011;5168;47.854;7.944;2023-02-12T15:39:17;1.80;;;1.70;;
10246;SDS011;5168;47.854;7.944;2023-02-12T15:41:46;1.70;;;1.60;;
10246;SDS011;5168;47.854;7.944;2023-02-12T15:44:20;2.00;;;1.80;;
10246;SDS011;5168;47.854;7.944;2023-02-12T15:46:53;3.30;;;1.83;;
10246;SDS011;5168;47.854;7.944;2023-02-12T15:49:29;1.60;;;1.50;;
10246;SDS011;5168;47.854;7.944;2023-02-12T15:51:57;2.23;;;1.73;;
10246;SDS011;5168;47.854;7.944;2023-02-12T15:54:24;4.53;;;1.90;;
10246;SDS011;5168;47.854;7.944;2023-02-12T15:56:52;1.97;;;1.87;;
10246;SDS011;5168;47.854;7.944;2023-02-12T15:59:19;1.97;;;1.80;;
10246;SDS011;5168;47.854;7.944;2023-02-12T16:01:59;1.80;;;1.70;;
10246;SDS011;5168;47.854;7.944;2023-02-12T16:04:31;1.83;;;1.73;;
10246;SDS011;5168;47.854;7.944;2023-02-12T16:07:00;1.83;;;1.73;;
10246;SDS011;5168;47.854;7.944;2023-02-12T16:09:30;2.30;;;2.10;;
10246;SDS011;5168;47.854;7.944;2023-02-12T16:11:58;2.20;;;1.80;;
10246;SDS011;5168;47.854;7.944;2023-02-12T16:14:37;1.83;;;1.73;;
10246;SDS011;5168;47.854;7.944;2023-02-12T16:17:44;2.40;;;2.10;;
10246;SDS011;5168;47.854;7.944;2023-02-12T16:22:44;2.53;;;2.20;;
10246;SDS011;5168;47.854;7.944;2023-02-12T16:25:19;2.10;;;1.90;;
10246;SDS011;5168;47.854;7.944;2023-02-12T16:27:54;2.10;;;1.90;;
10246;SDS011;5168;47.854;7.944;2023-02-12T16:33:03;1.90;;;1.80;;
10246;SDS011;5168;47.854;7.944;2023-02-12T16:35:30;2.27;;;1.90;;
10246;SDS011;5168;47.854;7.944;2023-02-12T16:38:43;2.00;;;1.87;;
10246;SDS011;5168;47.854;7.944;2023-02-12T16:43:42;2.97;;;1.90;;
10246;SDS011;5168;47.854;7.944;2023-02-12T16:46:12;4.03;;;1.83;;
10246;SDS011;5168;47.854;7.944;2023-02-12T16:48:41;3.10;;;1.80;;
10246;SDS011;5168;47.854;7.944;2023-02-12T16:51:25;2.10;;;1.50;;
10246;SDS011;5168;47.854;7.944;2023-02-12T16:53:56;2.50;;;2.00;;
10246;SDS011;5168;47.854;7.944;2023-02-12T16:56:23;2.07;;;1.90;;
10246;SDS011;5168;47.854;7.944;2023-02-12T16:58:52;2.13;;;1.83;;
10246;SDS011;5168;47.854;7.944;2023-02-12T17:01:24;2.00;;;1.80;;
10246;SDS011;5168;47.854;7.944;2023-02-12T17:04:12;1.90;;;1.80;;
10246;SDS011;5168;47.854;7.944;2023-02-12T17:06:40;1.73;;;1.63;;
10246;SDS011;5168;47.854;7.944;2023-02-12T17:09:07;1.80;;;1.70;;
10246;SDS011;5168;47.854;7.944;2023-02-12T17:11:34;1.80;;;1.70;;
10246;SDS011;5168;47.854;7.944;2023-02-12T17:14:00;1.80;;;1.70;;
10246;SDS011;5168;47.854;7.944;2023-02-12T17:16:25;3.40;;;1.60;;
10246;SDS011;5168;47.854;7.944;2023-02-12T17:18:51;2.03;;;1.83;;
10246;SDS011;5168;47.854;7.944;2023-02-12T17:23:51;1.73;;;1.63;;
10246;SDS011;5168;47.854;7.944;2023-02-12T17:26:20;1.60;;;1.50;;
10246;SDS011;5168;47.854;7.944;2023-02-12T17:28:46;1.80;;;1.70;;
10246;SDS011;5168;47.854;7.944;2023-02-12T17:31:12;1.60;;;1.50;;
10246;SDS011;5168;47.854;7.944;2023-02-12T17:33:38;1.60;;;1.50;;
10246;SDS011;5168;47.854;7.944;2023-02-12T17:36:04;1.97;;;1.77;;
10246;SDS011;5168;47.854;7.944;2023-02-12T17:38:30;1.90;;;1.80;;
10246;SDS011;5168;47.854;7.944;2023-02-12T17:40:56;1.53;;;1.43;;
10246;SDS011;5168;47.854;7.944;2023-02-12T17:43:21;1.70;;;1.60;;
10246;SDS011;5168;47.854;7.944;2023-02-12T17:45:47;1.80;;;1.70;;
10246;SDS011;5168;47.854;7.944;2023-02-12T17:48:14;2.13;;;1.77;;
10246;SDS011;5168;47.854;7.944;2023-02-12T17:50:41;2.00;;;1.80;;
10246;SDS011;5168;47.854;7.944;2023-02-12T17:53:08;1.90;;;1.80;;
10246;SDS011;5168;47.854;7.944;2023-02-12T17:55:37;1.80;;;1.70;;
10246;SDS011;5168;47.854;7.944;2023-02-12T17:58:04;1.90;;;1.53;;
10246;SDS011;5168;47.854;7.944;2023-02-12T18:00:30;1.70;;;1.60;;
10246;SDS011;5168;47.854;7.944;2023-02-12T18:02:56;1.70;;;1.60;;
10246;SDS011;5168;47.854;7.944;2023-02-12T18:05:22;1.77;;;1.63;;
10246;SDS011;5168;47.854;7.944;2023-02-12T18:07:47;1.90;;;1.70;;
10246;SDS011;5168;47.854;7.944;2023-02-12T18:10:13;2.30;;;1.80;;
10246;SDS011;5168;47.854;7.944;2023-02-12T18:12:38;1.70;;;1.60;;
10246;SDS011;5168;47.854;7.944;2023-02-12T18:15:05;1.80;;;1.70;;